createdAt,value
2022-10-13T09:35:07.843Z,13.63
2022-10-13T09:37:38.643Z,7.65
2022-10-13T09:44:30.758Z,7.97
2022-10-13T09:47:01.334Z,7.05
2022-10-13T09:49:40.907Z,11.82
2022-10-13T09:52:17.680Z,9.20
2022-10-13T09:54:47.504Z,7.88
2022-10-13T09:57:21.367Z,4.55
2022-10-13T09:59:54.877Z,6.97
2022-10-13T10:02:37.011Z,9.20
2022-10-13T10:05:46.309Z,6.72
2022-10-13T10:08:58.071Z,6.57
2022-10-13T10:11:45.034Z,6.32
2022-10-13T10:14:25.832Z,6.97
2022-10-13T10:17:23.127Z,6.80
2022-10-13T10:20:00.094Z,5.82
2022-10-13T10:22:31.025Z,12.32
2022-10-13T10:25:22.278Z,5.78
2022-10-13T10:28:13.348Z,5.30
2022-10-13T10:30:51.628Z,7.88
2022-10-13T10:34:10.167Z,5.13
2022-10-13T10:36:42.080Z,4.53
2022-10-13T10:39:37.171Z,6.75
2022-10-13T10:42:26.001Z,7.43
2022-10-13T10:44:54.688Z,5.00
2022-10-13T10:47:28.413Z,7.03
2022-10-13T10:50:05.709Z,6.28
2022-10-13T10:52:37.412Z,6.85
2022-10-13T10:55:22.536Z,4.68
2022-10-13T10:57:52.431Z,4.18
2022-10-13T11:00:22.503Z,5.53
2022-10-13T11:02:52.409Z,6.40
2022-10-13T11:05:20.048Z,5.05
2022-10-13T11:07:47.363Z,3.25
2022-10-13T11:10:16.506Z,5.68
2022-10-13T11:12:50.977Z,7.15
2022-10-13T11:15:27.538Z,5.45
2022-10-13T11:17:55.993Z,5.65
2022-10-13T11:20:28.669Z,8.43
2022-10-13T11:23:00.344Z,4.50
2022-10-13T11:25:44.761Z,3.40
2022-10-13T11:28:21.859Z,4.95
2022-10-13T11:30:57.529Z,7.53
2022-10-13T11:33:39.920Z,5.18
2022-10-13T11:36:31.431Z,6.65
2022-10-13T11:39:10.196Z,2.42
2022-10-13T11:41:47.878Z,4.65
2022-10-13T11:44:22.368Z,4.22
2022-10-13T11:47:04.528Z,4.10
2022-10-13T11:49:58.606Z,5.50
2022-10-13T11:52:48.687Z,5.55
2022-10-13T11:55:27.265Z,4.95
2022-10-13T11:58:08.915Z,4.68
2022-10-13T12:00:36.164Z,4.97
2022-10-13T12:03:03.510Z,6.85
2022-10-13T12:05:33.976Z,2.88
2022-10-13T12:08:04.050Z,5.93
2022-10-13T12:10:36.321Z,5.70
2022-10-13T12:13:05.367Z,5.40
2022-10-13T12:15:45.971Z,5.22
2022-10-13T12:21:31.014Z,6.38
2022-10-13T12:24:09.814Z,4.32
2022-10-13T12:26:37.565Z,4.28
2022-10-13T12:29:11.633Z,3.92
2022-10-13T12:31:38.779Z,8.07
2022-10-13T12:34:18.119Z,6.00
2022-10-13T12:36:50.704Z,5.07
2022-10-13T12:39:20.958Z,7.10
2022-10-13T12:41:56.022Z,4.70
2022-10-13T12:44:28.645Z,3.78
2022-10-13T12:46:59.148Z,5.32
2022-10-13T12:49:30.752Z,5.47
2022-10-13T12:52:10.012Z,5.30
2022-10-13T12:54:39.447Z,5.20
2022-10-13T12:57:20.590Z,4.50
2022-10-13T12:59:48.066Z,5.82
2022-10-13T13:02:34.623Z,6.05
2022-10-13T13:05:02.070Z,6.18
2022-10-13T13:07:35.428Z,4.80
2022-10-13T13:10:07.947Z,8.30
2022-10-13T13:12:36.995Z,5.72
2022-10-13T13:15:18.794Z,4.68
2022-10-13T13:17:57.821Z,5.82
2022-10-13T13:20:27.412Z,5.15
2022-10-13T13:22:55.061Z,4.63
2022-10-13T13:25:22.793Z,5.60
2022-10-13T13:27:50.330Z,6.30
2022-10-13T13:30:20.076Z,3.65
2022-10-13T13:32:49.684Z,7.18
2022-10-13T13:35:17.268Z,5.30
2022-10-13T13:37:48.226Z,3.75
2022-10-13T13:40:19.892Z,6.07
2022-10-13T13:42:47.893Z,9.00
2022-10-13T13:45:17.530Z,5.10
2022-10-13T13:47:47.364Z,7.00
2022-10-13T13:50:22.529Z,7.28
2022-10-13T13:52:53.740Z,6.68
2022-10-13T13:55:30.019Z,3.95
2022-10-13T13:57:57.822Z,4.95
2022-10-13T14:00:25.143Z,5.22
2022-10-13T14:02:52.583Z,4.28
2022-10-13T14:05:19.837Z,3.65
2022-10-13T14:07:47.195Z,6.22
2022-10-13T14:10:15.314Z,8.13
2022-10-13T14:12:44.070Z,5.85
2022-10-13T14:15:15.873Z,3.30
2022-10-13T14:17:43.051Z,4.38
2022-10-13T14:20:11.977Z,5.35
2022-10-13T14:22:40.061Z,4.43
2022-10-13T14:25:07.919Z,3.15
2022-10-13T14:27:36.665Z,4.68
2022-10-13T14:30:05.470Z,4.13
2022-10-13T14:32:36.406Z,8.38
2022-10-13T14:35:04.748Z,13.13
2022-10-13T14:37:33.784Z,9.73
2022-10-13T14:40:01.477Z,4.43
2022-10-13T14:42:28.837Z,10.13
2022-10-13T14:44:56.103Z,9.23
2022-10-13T14:47:23.830Z,10.43
2022-10-13T14:49:51.205Z,6.15
2022-10-13T14:52:18.745Z,12.93
2022-10-13T14:54:46.046Z,9.55
2022-10-13T14:57:16.164Z,12.10
2022-10-13T14:59:44.244Z,6.70
2022-10-13T15:02:13.068Z,4.88
2022-10-13T15:04:40.371Z,8.23
2022-10-13T15:07:08.513Z,5.93
2022-10-13T15:09:52.000Z,4.45
2022-10-13T15:12:21.081Z,6.53
2022-10-13T15:14:49.977Z,4.80
2022-10-13T15:17:17.203Z,5.18
2022-10-13T15:19:45.417Z,9.93
2022-10-13T15:22:12.697Z,9.25
2022-10-13T15:24:43.411Z,6.38
2022-10-13T15:27:10.700Z,11.00
2022-10-13T15:29:38.203Z,7.60
2022-10-13T15:32:17.757Z,8.65
2022-10-13T15:34:45.157Z,6.32
2022-10-13T15:37:13.335Z,9.32
2022-10-13T15:40:02.133Z,12.40
2022-10-13T15:42:32.147Z,9.95
2022-10-13T15:45:15.295Z,10.63
2022-10-13T15:47:46.394Z,10.05
2022-10-13T15:50:15.074Z,8.95
2022-10-13T15:55:31.788Z,8.32
2022-10-13T15:58:02.336Z,8.82
2022-10-13T16:00:30.050Z,8.13
2022-10-13T16:02:57.491Z,19.23
2022-10-13T16:05:24.807Z,17.10
2022-10-13T16:07:52.781Z,15.93
2022-10-13T16:10:23.715Z,10.25
2022-10-13T16:12:53.117Z,9.88
2022-10-13T16:15:22.157Z,18.50
2022-10-13T16:17:52.257Z,10.88
2022-10-13T16:20:20.099Z,15.55
2022-10-13T16:22:49.523Z,11.48
2022-10-13T16:25:17.185Z,10.10
2022-10-13T16:27:44.873Z,12.63
2022-10-13T16:30:13.497Z,8.82
2022-10-13T16:32:40.761Z,15.77
2022-10-13T16:35:08.227Z,14.95
2022-10-13T16:37:35.438Z,10.43
2022-10-13T16:40:04.977Z,14.45
2022-10-13T16:42:34.289Z,9.02
2022-10-13T16:45:03.793Z,14.05
2022-10-13T16:47:31.070Z,10.93
2022-10-13T16:49:58.679Z,10.85
2022-10-13T16:52:26.003Z,10.05
2022-10-13T16:54:53.212Z,10.52
2022-10-13T16:57:20.795Z,12.02
2022-10-13T16:59:48.261Z,12.32
2022-10-13T17:02:15.868Z,17.50
2022-10-13T17:04:43.441Z,11.65
2022-10-13T17:07:10.769Z,10.32
2022-10-13T17:09:38.408Z,11.80
2022-10-13T17:12:08.042Z,8.20
2022-10-13T17:14:36.343Z,8.93
2022-10-13T17:17:08.583Z,18.98
2022-10-13T17:19:36.450Z,15.88
2022-10-13T17:22:03.759Z,8.15
2022-10-13T17:24:31.282Z,14.40
2022-10-13T17:26:58.521Z,8.57
2022-10-13T17:29:29.636Z,9.32
2022-10-13T17:31:59.487Z,10.73
2022-10-13T17:34:27.525Z,12.00
2022-10-13T17:36:55.218Z,10.23
2022-10-13T17:39:37.589Z,13.32
2022-10-13T17:42:34.393Z,18.58
2022-10-13T17:45:04.298Z,12.45
2022-10-13T17:47:35.570Z,17.42
2022-10-13T17:50:04.520Z,13.10
2022-10-13T17:52:34.509Z,10.13
2022-10-13T17:55:01.763Z,13.90
2022-10-13T17:57:36.236Z,11.20
2022-10-13T18:00:07.429Z,12.60
2022-10-13T18:02:37.645Z,11.88
2022-10-13T18:05:05.167Z,13.65
2022-10-13T18:07:32.478Z,12.65
2022-10-13T18:10:01.277Z,18.48
2022-10-13T18:12:30.463Z,18.00
2022-10-13T18:14:57.921Z,15.18
2022-10-13T18:17:27.404Z,15.50
2022-10-13T18:19:57.961Z,17.67
2022-10-13T18:22:25.201Z,15.73
2022-10-13T18:24:56.931Z,14.88
2022-10-13T18:27:24.642Z,22.25
2022-10-13T18:29:51.844Z,19.13
2022-10-13T18:32:19.069Z,13.27
2022-10-13T18:34:47.775Z,14.48
2022-10-13T18:37:15.417Z,14.02
2022-10-13T18:39:44.983Z,16.92
2022-10-13T18:42:12.851Z,23.90
2022-10-13T18:44:40.042Z,22.25
2022-10-13T18:47:09.401Z,20.92
2022-10-13T18:49:38.383Z,17.63
2022-10-13T18:52:07.932Z,18.70
2022-10-13T18:54:40.936Z,21.58
2022-10-13T18:57:08.109Z,33.75
2022-10-13T18:59:38.713Z,31.95
2022-10-13T19:02:06.085Z,23.52
2022-10-13T19:04:35.352Z,17.05
2022-10-13T19:07:03.765Z,23.88
2022-10-13T19:09:31.040Z,20.83
2022-10-13T19:11:58.504Z,17.00
2022-10-13T19:14:27.327Z,14.98
2022-10-13T19:16:57.140Z,16.73
2022-10-13T19:19:28.319Z,13.52
2022-10-13T19:21:56.051Z,13.27
2022-10-13T19:24:23.449Z,18.77
2022-10-13T19:26:51.845Z,16.60
2022-10-13T19:29:19.235Z,14.98
2022-10-13T19:31:48.338Z,12.13
2022-10-13T19:34:17.679Z,13.43
2022-10-13T19:36:46.475Z,15.93
2022-10-13T19:39:17.605Z,16.90
2022-10-13T19:41:46.544Z,13.60
2022-10-13T19:44:14.532Z,18.85
2022-10-13T19:46:43.421Z,14.32
2022-10-13T19:49:16.003Z,15.85
2022-10-13T19:51:46.884Z,14.57
2022-10-13T19:54:14.392Z,13.48
2022-10-13T19:56:43.485Z,13.95
2022-10-13T19:59:14.459Z,11.68
2022-10-13T20:01:46.633Z,10.35
2022-10-13T20:04:17.940Z,12.55
2022-10-13T20:06:51.671Z,13.05
2022-10-13T20:09:23.004Z,13.32
2022-10-13T20:11:52.893Z,10.85
2022-10-13T20:14:21.342Z,12.75
2022-10-13T20:17:00.687Z,29.08
2022-10-13T20:19:28.740Z,17.30
2022-10-13T20:21:56.461Z,19.73
2022-10-13T20:24:23.863Z,16.60
2022-10-13T20:26:51.269Z,25.42
2022-10-13T20:29:23.183Z,19.75
2022-10-13T20:31:50.731Z,16.67
2022-10-13T20:34:18.147Z,18.35
2022-10-13T20:36:45.351Z,20.48
2022-10-13T20:39:16.753Z,15.38
2022-10-13T20:41:44.041Z,20.63
2022-10-13T20:44:11.398Z,18.92
2022-10-13T20:46:38.597Z,21.13
2022-10-13T20:49:11.806Z,16.38
2022-10-13T20:51:44.600Z,20.42
2022-10-13T20:54:13.562Z,18.92
2022-10-13T20:56:41.281Z,19.70
2022-10-13T20:59:14.802Z,17.45
2022-10-13T21:01:42.826Z,28.02
2022-10-13T21:04:16.408Z,15.70
2022-10-13T21:06:44.102Z,14.30
2022-10-13T21:09:14.200Z,15.55
2022-10-13T21:11:41.476Z,11.20
2022-10-13T21:14:10.518Z,13.93
2022-10-13T21:16:38.388Z,12.15
2022-10-13T21:19:10.183Z,17.02
2022-10-13T21:21:38.266Z,12.13
2022-10-13T21:24:10.230Z,11.60
2022-10-13T21:26:40.913Z,13.38
2022-10-13T21:29:11.568Z,15.38
2022-10-13T21:31:39.493Z,12.32
2022-10-13T21:34:08.354Z,13.95
2022-10-13T21:36:44.709Z,9.10
2022-10-13T21:39:15.755Z,14.75
2022-10-13T21:41:43.519Z,13.63
2022-10-13T21:44:15.755Z,10.85
2022-10-13T21:46:43.864Z,12.98
2022-10-13T21:49:11.977Z,10.25
2022-10-13T21:51:40.369Z,14.35
2022-10-13T21:54:12.408Z,16.10
2022-10-13T21:56:40.919Z,15.57
2022-10-13T21:59:10.163Z,13.07
2022-10-13T22:01:38.635Z,10.35
2022-10-13T22:04:06.721Z,10.90
2022-10-13T22:06:34.484Z,13.05
2022-10-13T22:09:04.178Z,12.38
2022-10-13T22:11:33.993Z,13.68
2022-10-13T22:14:01.827Z,13.45
2022-10-13T22:16:32.963Z,12.73
2022-10-13T22:19:03.600Z,12.32
2022-10-13T22:21:34.264Z,13.32
2022-10-13T22:24:04.504Z,12.18
2022-10-13T22:26:36.555Z,13.45
2022-10-13T22:29:05.862Z,12.77
2022-10-13T22:31:35.428Z,10.60
2022-10-13T22:34:03.314Z,11.40
2022-10-13T22:36:33.824Z,14.18
2022-10-13T22:39:04.021Z,15.13
2022-10-13T22:41:32.963Z,16.75
2022-10-13T22:44:01.852Z,13.35
2022-10-13T22:46:35.112Z,14.27
2022-10-13T22:49:03.138Z,18.50
2022-10-13T22:51:33.352Z,12.77
2022-10-13T22:54:04.077Z,12.75
2022-10-13T22:56:33.715Z,13.48
2022-10-13T22:59:06.138Z,16.98
2022-10-13T23:01:34.349Z,43.03
2022-10-13T23:04:01.770Z,18.02
2022-10-13T23:06:31.416Z,20.83
2022-10-13T23:09:03.909Z,14.55
2022-10-13T23:11:31.743Z,15.75
2022-10-13T23:14:04.767Z,15.93
2022-10-13T23:16:33.240Z,13.48
2022-10-13T23:19:00.515Z,12.30
2022-10-13T23:21:29.843Z,10.30
2022-10-13T23:23:59.467Z,12.95
2022-10-13T23:26:27.543Z,12.02
2022-10-13T23:28:55.905Z,14.35
2022-10-13T23:31:24.022Z,12.48
2022-10-13T23:33:51.700Z,13.13
2022-10-13T23:36:22.649Z,17.40
2022-10-13T23:39:10.541Z,12.45
2022-10-13T23:41:38.450Z,14.15
2022-10-13T23:44:06.266Z,17.83
2022-10-13T23:46:33.588Z,11.18
2022-10-13T23:49:01.017Z,11.70
2022-10-13T23:51:28.548Z,15.75
2022-10-13T23:53:56.336Z,14.02
2022-10-13T23:56:26.473Z,11.90
2022-10-13T23:58:53.973Z,14.70
